Skip Navigation Linkwww.weather.gov 
NOAA logo - Select to go to the NOAA homepage National Weather Service
 Headquarters Office   NWS logo
Internet Weather Source
 
   
 

On or about April 4th, 2012, request for METARS through this service will be redirected to:

http://www.aviationweather.gov/adds/metars/

This redirection is part of a larger effort to reduce duplication of effort within the National Weather Service. The website above offers the same functionality. It also needs to be noted that the NWS Aviation Weather Center operated website above is the only FAA approved source of aviation weather overe the Internet to be used for pilot briefings. Please update bookmarks, links, etc..

RJSY

The most recent METAR observation from RJSY in our system was generated at the source at:

2014/12/22 13:12 UTC

The observation is:


2014/12/22 12:29 RJSY 221229Z 30023G36KT 6000 -SHSN FEW008 SCT015 BKN030 01/M02 Q1008 RMK 1ST008 3CU015 7CU030 A2979 P/RR


US Dept of Commerce
National Oceanic and Atmospheric Administration
National Weather Service
Office of the Chief Information Officer (OCIO13)
1325 East West Highway
Silver Spring, MD 20910
Page last modified: Feb 28, 2012
Page Author: NWS Webmaster
Disclaimer
Feedback
Privacy Notice
Credits